Time,TemperatureF,DewpointF,PressureIn,WindDirection,WindDirectionDegrees,WindSpeedMPH,WindSpeedGustMPH,Humidity,HourlyPrecipIn,Conditions,Clouds,dailyrainin,SolarRadiationWatts/m^2,SoftwareType,DateUTC
2013-10-13 00:02:00,60.1,58.6,30.02,ENE,67,0.0,0.0,95,0.00,,,0.00,0.0,meteohub,2013-10-13 04:02:00,
2013-10-13 00:07:00,59.9,58.5,30.02,ENE,67,0.0,0.0,95,0.00,,,0.00,0.0,meteohub,2013-10-13 04:07:00,
2013-10-13 00:11:00,59.9,58.5,30.03,ENE,67,0.0,0.0,95,0.00,,,0.00,0.0,meteohub,2013-10-13 04:11:00,
2013-10-13 00:17:00,59.7,58.3,30.03,ENE,67,0.0,0.0,95,0.00,,,0.00,0.0,meteohub,2013-10-13 04:17:00,
2013-10-13 00:21:00,59.5,58.1,30.02,ENE,67,0.0,0.0,95,0.00,,,0.00,0.0,meteohub,2013-10-13 04:21:00,
2013-10-13 00:27:00,59.2,57.7,30.03,ENE,67,0.0,0.0,95,0.00,,,0.00,0.0,meteohub,2013-10-13 04:27:00,
2013-10-13 00:33:00,59.4,58.3,30.03,ENE,67,0.0,0.0,96,0.00,,,0.00,0.0,meteohub,2013-10-13 04:33:00,
2013-10-13 00:39:00,59.4,57.9,30.03,ENE,67,0.0,0.0,95,0.00,,,0.00,0.0,meteohub,2013-10-13 04:39:00,
2013-10-13 00:45:00,59.4,57.9,30.03,ENE,67,0.0,0.0,95,0.00,,,0.00,0.0,meteohub,2013-10-13 04:45:00,
2013-10-13 00:51:00,59.4,57.9,30.03,ENE,67,0.0,0.0,95,0.00,,,0.00,0.0,meteohub,2013-10-13 04:51:00,
2013-10-13 00:57:00,59.2,57.7,30.02,ENE,67,0.0,0.0,95,0.00,,,0.00,0.0,meteohub,2013-10-13 04:57:00,
2013-10-13 01:02:00,59.2,57.7,30.02,ENE,67,0.0,0.0,95,0.00,,,0.00,0.0,meteohub,2013-10-13 05:02:00,
2013-10-13 01:07:00,59.2,57.7,30.02,ENE,67,0.0,0.0,95,0.00,,,0.00,0.0,meteohub,2013-10-13 05:07:00,
2013-10-13 01:12:00,58.8,57.4,30.01,ENE,67,0.0,0.0,95,0.00,,,0.00,0.0,meteohub,2013-10-13 05:12:00,
2013-10-13 01:17:00,58.8,57.4,30.01,ENE,67,0.0,0.0,95,0.00,,,0.00,0.0,meteohub,2013-10-13 05:17:00,
2013-10-13 01:22:00,58.6,57.2,30.01,ENE,67,0.0,0.0,95,0.00,,,0.00,0.0,meteohub,2013-10-13 05:22:00,
2013-10-13 01:27:00,58.6,57.2,30.01,ENE,67,0.0,0.0,95,0.00,,,0.00,0.0,meteohub,2013-10-13 05:27:00,
2013-10-13 01:35:00,58.3,56.8,30.01,ENE,67,0.0,0.0,95,0.00,,,0.00,0.0,meteohub,2013-10-13 05:35:00,
2013-10-13 01:41:00,58.3,57.2,30.00,ENE,67,0.0,0.0,96,0.00,,,0.00,0.0,meteohub,2013-10-13 05:41:00,
2013-10-13 01:47:00,58.1,57.0,30.01,ENE,67,0.0,0.0,96,0.00,,,0.00,0.0,meteohub,2013-10-13 05:47:00,
2013-10-13 01:53:00,58.3,57.2,30.01,ENE,67,0.0,0.0,96,0.00,,,0.00,0.0,meteohub,2013-10-13 05:53:00,
2013-10-13 01:59:00,58.1,57.0,30.01,ENE,67,0.0,0.0,96,0.00,,,0.00,0.0,meteohub,2013-10-13 05:59:00,
2013-10-13 02:06:00,57.9,56.8,30.02,ENE,67,0.0,0.0,96,0.00,,,0.00,0.0,meteohub,2013-10-13 06:06:00,
2013-10-13 02:12:00,58.1,57.0,30.01,ENE,67,0.0,0.0,96,0.00,,,0.00,0.0,meteohub,2013-10-13 06:12:00,
2013-10-13 02:18:00,57.9,56.8,30.01,ENE,67,0.0,0.0,96,0.00,,,0.00,0.0,meteohub,2013-10-13 06:18:00,
2013-10-13 02:24:00,57.9,56.8,30.02,ENE,67,0.0,0.0,96,0.00,,,0.00,0.0,meteohub,2013-10-13 06:24:00,
2013-10-13 02:30:00,57.9,56.8,30.03,ENE,67,0.0,0.0,96,0.00,,,0.00,0.0,meteohub,2013-10-13 06:30:00,
2013-10-13 02:37:00,57.7,56.7,30.02,ENE,67,0.0,0.0,96,0.00,,,0.00,0.0,meteohub,2013-10-13 06:37:00,
2013-10-13 02:43:00,57.7,56.8,30.02,ENE,67,0.0,0.0,97,0.00,,,0.00,0.0,meteohub,2013-10-13 06:43:00,
2013-10-13 02:49:00,57.4,56.3,30.02,ENE,67,0.0,0.0,96,0.00,,,0.00,0.0,meteohub,2013-10-13 06:49:00,
2013-10-13 02:55:00,57.2,56.1,30.02,ENE,67,0.0,0.0,96,0.00,,,0.00,0.0,meteohub,2013-10-13 06:55:00,
2013-10-13 03:01:00,57.2,56.3,30.02,ENE,67,0.0,0.0,97,0.00,,,0.00,0.0,meteohub,2013-10-13 07:01:00,
2013-10-13 03:07:00,57.0,56.1,30.03,ENE,67,0.0,0.0,97,0.00,,,0.00,0.0,meteohub,2013-10-13 07:07:00,
2013-10-13 03:12:00,57.0,55.9,30.02,ENE,67,0.0,0.0,96,0.00,,,0.00,0.0,meteohub,2013-10-13 07:12:00,
2013-10-13 03:17:00,57.0,55.9,30.02,ENE,67,0.0,0.0,96,0.00,,,0.00,0.0,meteohub,2013-10-13 07:17:00,
2013-10-13 03:23:00,57.0,56.1,30.01,ENE,67,0.0,0.0,97,0.00,,,0.00,0.0,meteohub,2013-10-13 07:23:00,
2013-10-13 03:29:00,56.8,55.9,30.01,ENE,67,0.0,0.0,97,0.00,,,0.00,0.0,meteohub,2013-10-13 07:29:00,
2013-10-13 03:35:00,56.7,55.8,30.01,ENE,67,0.0,0.0,97,0.00,,,0.00,0.0,meteohub,2013-10-13 07:35:00,
2013-10-13 03:42:00,56.7,55.8,30.01,ENE,67,0.0,0.0,97,0.00,,,0.00,0.0,meteohub,2013-10-13 07:42:00,
2013-10-13 03:47:00,56.7,55.8,30.02,ENE,67,0.0,0.0,97,0.00,,,0.00,0.0,meteohub,2013-10-13 07:47:00,
2013-10-13 03:54:00,56.7,55.8,30.02,ENE,67,0.0,0.0,97,0.00,,,0.00,0.0,meteohub,2013-10-13 07:54:00,
2013-10-13 04:00:00,56.7,55.8,30.01,ENE,67,0.0,0.0,97,0.00,,,0.00,0.0,meteohub,2013-10-13 08:00:00,
2013-10-13 04:06:00,56.7,55.8,30.01,ENE,67,0.0,0.0,97,0.00,,,0.00,0.0,meteohub,2013-10-13 08:06:00,
2013-10-13 04:12:00,56.8,55.9,30.01,ENE,67,0.0,0.0,97,0.00,,,0.00,0.0,meteohub,2013-10-13 08:12:00,
2013-10-13 04:17:00,56.8,55.9,30.01,ENE,67,0.0,0.0,97,0.00,,,0.00,0.0,meteohub,2013-10-13 08:17:00,
2013-10-13 04:25:00,56.7,55.8,30.01,ENE,67,0.0,0.0,97,0.00,,,0.00,0.0,meteohub,2013-10-13 08:25:00,
2013-10-13 04:31:00,56.8,55.9,30.01,ENE,67,0.0,0.0,97,0.00,,,0.00,0.0,meteohub,2013-10-13 08:31:00,
2013-10-13 04:37:00,56.8,55.9,30.01,ENE,67,0.0,0.0,97,0.00,,,0.00,0.0,meteohub,2013-10-13 08:37:00,
2013-10-13 04:42:00,56.7,55.8,30.01,ENE,67,0.0,0.0,97,0.00,,,0.00,0.0,meteohub,2013-10-13 08:42:00,
2013-10-13 04:47:00,56.7,55.8,30.01,ENE,67,0.0,0.0,97,0.00,,,0.00,0.0,meteohub,2013-10-13 08:47:00,
2013-10-13 04:52:00,56.7,55.8,30.01,ENE,67,0.0,0.0,97,0.00,,,0.00,0.0,meteohub,2013-10-13 08:52:00,
2013-10-13 04:58:00,56.5,55.6,30.01,ENE,67,0.0,0.0,97,0.00,,,0.00,0.0,meteohub,2013-10-13 08:58:00,
2013-10-13 05:05:00,56.7,55.8,30.02,ENE,67,0.0,0.0,97,0.00,,,0.00,0.0,meteohub,2013-10-13 09:05:00,
2013-10-13 05:11:00,56.7,55.8,30.02,ENE,67,0.0,0.0,97,0.00,,,0.00,0.0,meteohub,2013-10-13 09:11:00,
2013-10-13 05:17:00,56.7,55.8,30.02,ENE,67,0.0,0.0,97,0.00,,,0.00,0.0,meteohub,2013-10-13 09:17:00,
2013-10-13 05:22:00,56.7,55.8,30.02,ENE,67,0.0,0.0,97,0.00,,,0.00,0.0,meteohub,2013-10-13 09:22:00,
2013-10-13 05:27:00,56.7,55.8,30.03,ENE,67,0.0,0.0,97,0.00,,,0.00,0.0,meteohub,2013-10-13 09:27:00,
2013-10-13 05:32:00,56.7,55.8,30.03,ENE,67,0.0,0.0,97,0.00,,,0.00,0.0,meteohub,2013-10-13 09:32:00,
2013-10-13 05:37:00,56.7,55.8,30.03,ENE,67,0.0,0.0,97,0.00,,,0.00,0.0,meteohub,2013-10-13 09:37:00,
2013-10-13 05:42:00,56.7,55.8,30.03,ENE,67,0.0,0.0,97,0.00,,,0.00,0.0,meteohub,2013-10-13 09:42:00,
2013-10-13 05:47:00,56.8,55.9,30.03,ENE,67,0.0,0.0,97,0.00,,,0.00,0.0,meteohub,2013-10-13 09:47:00,
2013-10-13 05:52:00,56.8,55.9,30.03,ENE,67,0.0,0.0,97,0.00,,,0.00,0.0,meteohub,2013-10-13 09:52:00,
2013-10-13 05:57:00,56.8,55.9,30.03,ENE,67,0.0,0.0,97,0.00,,,0.00,0.0,meteohub,2013-10-13 09:57:00,
2013-10-13 06:02:00,57.0,56.1,30.03,ENE,67,0.0,0.0,97,0.00,,,0.00,0.0,meteohub,2013-10-13 10:02:00,
2013-10-13 06:07:00,57.0,56.1,30.03,ENE,67,0.0,0.0,97,0.00,,,0.00,0.0,meteohub,2013-10-13 10:07:00,
2013-10-13 06:12:00,57.2,56.3,30.03,ENE,67,0.0,0.0,97,0.00,,,0.00,0.0,meteohub,2013-10-13 10:12:00,
2013-10-13 06:17:00,57.4,56.5,30.03,ENE,67,0.0,0.0,97,0.00,,,0.00,0.0,meteohub,2013-10-13 10:17:00,
2013-10-13 06:22:00,57.4,56.3,30.04,ENE,60,0.0,0.0,96,0.00,,,0.00,0.0,meteohub,2013-10-13 10:22:00,
2013-10-13 06:28:00,57.4,56.3,30.03,ENE,60,0.0,0.0,96,0.00,,,0.00,0.0,meteohub,2013-10-13 10:28:00,
2013-10-13 06:34:00,57.2,56.1,30.04,ENE,60,0.0,0.0,96,0.00,,,0.00,0.0,meteohub,2013-10-13 10:34:00,
2013-10-13 06:41:00,57.4,56.5,30.04,ENE,60,0.0,0.0,97,0.00,,,0.00,0.0,meteohub,2013-10-13 10:41:00,
2013-10-13 06:47:00,57.6,56.7,30.04,ENE,60,0.0,0.0,97,0.00,,,0.00,0.0,meteohub,2013-10-13 10:47:00,
2013-10-13 06:53:00,57.7,56.8,30.04,ENE,61,0.0,0.0,97,0.00,,,0.00,0.0,meteohub,2013-10-13 10:53:00,
2013-10-13 06:59:00,57.7,56.7,30.04,East,88,0.0,0.0,96,0.00,,,0.00,0.0,meteohub,2013-10-13 10:59:00,
2013-10-13 07:05:00,57.7,56.7,30.04,East,95,0.0,0.0,96,0.00,,,0.00,0.0,meteohub,2013-10-13 11:05:00,
2013-10-13 07:12:00,57.6,56.5,30.04,East,95,0.0,1.0,96,0.00,,,0.00,0.0,meteohub,2013-10-13 11:12:00,
2013-10-13 07:17:00,57.6,56.5,30.05,East,95,0.0,1.0,96,0.00,,,0.00,0.0,meteohub,2013-10-13 11:17:00,
2013-10-13 07:24:00,57.7,56.8,30.05,East,89,0.0,1.0,97,0.00,,,0.00,7.0,meteohub,2013-10-13 11:24:00,
2013-10-13 07:30:00,58.3,57.4,30.05,East,90,1.0,1.0,97,0.00,,,0.00,7.0,meteohub,2013-10-13 11:30:00,
2013-10-13 07:36:00,58.6,57.6,30.05,East,90,0.0,1.0,96,0.00,,,0.00,7.0,meteohub,2013-10-13 11:36:00,
2013-10-13 07:42:00,59.0,57.6,30.05,East,90,0.0,2.0,95,0.00,,,0.00,11.0,meteohub,2013-10-13 11:42:00,
2013-10-13 07:49:00,59.2,57.7,30.05,East,90,0.0,2.0,95,0.00,,,0.00,16.0,meteohub,2013-10-13 11:49:00,
2013-10-13 07:55:00,59.2,57.7,30.05,NE,46,1.0,1.0,95,0.00,,,0.00,16.0,meteohub,2013-10-13 11:55:00,
2013-10-13 08:01:00,59.4,57.6,30.05,North,11,0.0,1.0,94,0.00,,,0.00,14.0,meteohub,2013-10-13 12:01:00,
2013-10-13 08:07:00,59.4,57.9,30.06,North,0,1.0,1.0,95,0.00,,,0.00,18.0,meteohub,2013-10-13 12:07:00,
2013-10-13 08:12:00,59.5,58.1,30.06,SSE,153,0.0,2.0,95,0.00,,,0.00,25.0,meteohub,2013-10-13 12:12:00,
2013-10-13 08:17:00,60.1,58.3,30.06,SSE,153,1.0,2.0,94,0.00,,,0.00,28.0,meteohub,2013-10-13 12:17:00,
2013-10-13 08:22:00,60.4,58.6,30.06,SSW,202,0.0,2.0,94,0.00,,,0.00,32.0,meteohub,2013-10-13 12:22:00,
2013-10-13 08:32:00,61.3,59.5,30.06,SSW,202,1.0,2.0,94,0.00,,,0.00,46.0,meteohub,2013-10-13 12:32:00,
2013-10-13 08:37:00,62.1,60.1,30.06,SW,235,0.0,2.0,93,0.00,,,0.00,49.0,meteohub,2013-10-13 12:37:00,
2013-10-13 08:42:00,62.6,60.3,30.06,SW,235,0.0,2.0,92,0.00,,,0.00,51.0,meteohub,2013-10-13 12:42:00,
2013-10-13 08:47:00,63.3,60.6,30.07,SW,235,0.0,2.0,91,0.00,,,0.00,70.0,meteohub,2013-10-13 12:47:00,
2013-10-13 08:52:00,64.0,61.0,30.07,SW,235,0.0,2.0,90,0.00,,,0.00,105.0,meteohub,2013-10-13 12:52:00,
2013-10-13 08:57:00,64.9,61.9,30.07,SW,235,0.0,2.0,90,0.00,,,0.00,107.0,meteohub,2013-10-13 12:57:00,
2013-10-13 09:02:00,65.5,62.2,30.07,SW,235,0.0,2.0,89,0.00,,,0.00,97.0,meteohub,2013-10-13 13:02:00,
2013-10-13 09:07:00,65.7,62.2,30.08,SW,235,0.0,2.0,89,0.00,,,0.00,102.0,meteohub,2013-10-13 13:07:00,
2013-10-13 09:12:00,66.0,62.4,30.08,SW,235,0.0,2.0,88,0.00,,,0.00,88.0,meteohub,2013-10-13 13:12:00,
2013-10-13 09:19:00,66.2,62.6,30.08,SW,229,0.0,1.0,88,0.00,,,0.00,86.0,meteohub,2013-10-13 13:19:00,
2013-10-13 09:25:00,66.2,62.8,30.08,SW,235,0.0,1.0,89,0.00,,,0.00,104.0,meteohub,2013-10-13 13:25:00,
2013-10-13 09:31:00,66.6,63.1,30.08,SW,235,0.0,2.0,89,0.00,,,0.00,151.0,meteohub,2013-10-13 13:31:00,
2013-10-13 09:37:00,66.9,62.6,30.09,NNW,332,1.0,2.0,86,0.00,,,0.00,148.0,meteohub,2013-10-13 13:37:00,
2013-10-13 09:42:00,67.5,63.5,30.09,WNW,292,1.0,3.0,87,0.00,,,0.00,176.0,meteohub,2013-10-13 13:42:00,
2013-10-13 09:47:00,67.8,63.9,30.09,WNW,296,0.0,3.0,87,0.00,,,0.00,172.0,meteohub,2013-10-13 13:47:00,
2013-10-13 09:53:00,68.4,64.4,30.10,WNW,294,0.0,3.0,87,0.00,,,0.00,206.0,meteohub,2013-10-13 13:53:00,
2013-10-13 09:59:00,69.4,64.8,30.10,NE,45,1.0,3.0,85,0.00,,,0.00,195.0,meteohub,2013-10-13 13:59:00,
2013-10-13 10:05:00,69.4,64.8,30.10,NNE,19,1.0,3.0,85,0.00,,,0.00,271.0,meteohub,2013-10-13 14:05:00,
2013-10-13 10:11:00,69.6,64.9,30.10,NW,315,3.0,3.0,85,0.00,,,0.00,200.0,meteohub,2013-10-13 14:11:00,
2013-10-13 10:17:00,69.6,64.9,30.10,ENE,57,0.0,3.0,85,0.00,,,0.00,192.0,meteohub,2013-10-13 14:17:00,
2013-10-13 10:22:00,70.0,65.3,30.10,NW,319,1.0,4.0,85,0.00,,,0.00,698.0,meteohub,2013-10-13 14:22:00,
2013-10-13 10:27:00,71.1,65.7,30.10,WSW,258,1.0,4.0,83,0.00,,,0.00,304.0,meteohub,2013-10-13 14:27:00,
2013-10-13 10:32:00,72.0,66.6,30.10,NNW,331,1.0,3.0,83,0.00,,,0.00,367.0,meteohub,2013-10-13 14:32:00,
2013-10-13 10:37:00,72.7,66.6,30.10,ENE,65,0.0,3.0,81,0.00,,,0.00,250.0,meteohub,2013-10-13 14:37:00,
2013-10-13 10:42:00,73.2,66.7,30.10,North,355,1.0,3.0,80,0.00,,,0.00,369.0,meteohub,2013-10-13 14:42:00,
2013-10-13 10:48:00,74.7,66.9,30.10,North,0,2.0,3.0,77,0.00,,,0.00,856.0,meteohub,2013-10-13 14:48:00,
2013-10-13 10:55:00,75.9,66.6,30.10,WNW,294,0.0,5.0,73,0.00,,,0.00,367.0,meteohub,2013-10-13 14:55:00,
2013-10-13 11:01:00,76.3,67.5,30.10,NW,305,1.0,5.0,74,0.00,,,0.00,357.0,meteohub,2013-10-13 15:01:00,
2013-10-13 11:07:00,76.6,66.9,30.10,West,275,1.0,5.0,72,0.00,,,0.00,285.0,meteohub,2013-10-13 15:07:00,
2013-10-13 11:12:00,75.9,66.6,30.10,NE,47,1.0,5.0,73,0.00,,,0.00,332.0,meteohub,2013-10-13 15:12:00,
2013-10-13 11:17:00,76.6,67.3,30.10,North,355,1.0,5.0,73,0.00,,,0.00,316.0,meteohub,2013-10-13 15:17:00,
2013-10-13 11:22:00,76.5,67.1,30.10,NNE,33,1.0,5.0,73,0.00,,,0.00,190.0,meteohub,2013-10-13 15:22:00,
2013-10-13 11:29:00,76.8,67.5,30.10,NE,41,1.0,3.0,73,0.00,,,0.00,770.0,meteohub,2013-10-13 15:29:00,
2013-10-13 11:35:00,78.8,67.8,30.10,ENE,72,1.0,3.0,69,0.00,,,0.00,745.0,meteohub,2013-10-13 15:35:00,
2013-10-13 11:41:00,79.5,67.1,30.10,NNE,20,2.0,3.0,66,0.00,,,0.00,735.0,meteohub,2013-10-13 15:41:00,
2013-10-13 11:47:00,79.3,66.6,30.10,NNE,18,1.0,4.0,65,0.00,,,0.00,759.0,meteohub,2013-10-13 15:47:00,
2013-10-13 11:52:00,79.9,66.6,30.10,West,263,2.0,4.0,64,0.00,,,0.00,615.0,meteohub,2013-10-13 15:52:00,
2013-10-13 11:57:00,79.3,67.5,30.10,North,355,1.0,4.0,67,0.00,,,0.00,773.0,meteohub,2013-10-13 15:57:00,
2013-10-13 12:02:00,79.2,66.7,30.10,NW,317,0.0,4.0,66,0.00,,,0.00,773.0,meteohub,2013-10-13 16:02:00,
2013-10-13 12:07:00,80.1,67.3,30.10,East,80,2.0,6.0,65,0.00,,,0.00,749.0,meteohub,2013-10-13 16:07:00,
2013-10-13 12:12:00,80.2,66.9,30.09,NE,55,2.0,6.0,64,0.00,,,0.00,751.0,meteohub,2013-10-13 16:12:00,
2013-10-13 12:17:00,80.8,66.9,30.09,NE,56,2.0,5.0,63,0.00,,,0.00,751.0,meteohub,2013-10-13 16:17:00,
2013-10-13 12:22:00,81.0,67.1,30.09,NNE,30,0.0,5.0,63,0.00,,,0.00,754.0,meteohub,2013-10-13 16:22:00,
2013-10-13 12:27:00,82.0,67.6,30.09,ENE,76,2.0,5.0,62,0.00,,,0.00,768.0,meteohub,2013-10-13 16:27:00,
2013-10-13 12:32:00,81.7,67.8,30.09,NNE,20,5.0,5.0,63,0.00,,,0.00,754.0,meteohub,2013-10-13 16:32:00,
2013-10-13 12:37:00,81.7,67.5,30.09,NNE,26,4.0,7.0,62,0.00,,,0.00,784.0,meteohub,2013-10-13 16:37:00,
2013-10-13 12:42:00,82.0,67.6,30.08,NNE,13,4.0,7.0,62,0.00,,,0.00,795.0,meteohub,2013-10-13 16:42:00,
2013-10-13 12:47:00,82.0,67.3,30.08,NE,55,2.0,7.0,61,0.00,,,0.00,791.0,meteohub,2013-10-13 16:47:00,
2013-10-13 12:52:00,82.8,67.5,30.08,West,271,2.0,7.0,60,0.00,,,0.00,861.0,meteohub,2013-10-13 16:52:00,
2013-10-13 12:57:00,83.3,67.5,30.08,WNW,290,2.0,7.0,59,0.00,,,0.00,816.0,meteohub,2013-10-13 16:57:00,
2013-10-13 13:02:00,82.8,66.6,30.08,ENE,57,1.0,7.0,58,0.00,,,0.00,664.0,meteohub,2013-10-13 17:02:00,
2013-10-13 13:07:00,83.5,67.6,30.08,WNW,285,2.0,6.0,59,0.00,,,0.00,972.0,meteohub,2013-10-13 17:07:00,
2013-10-13 13:12:00,83.7,67.3,30.08,ESE,110,3.0,6.0,58,0.00,,,0.00,998.0,meteohub,2013-10-13 17:12:00,
2013-10-13 13:17:00,84.4,67.5,30.07,WNW,288,4.0,7.0,57,0.00,,,0.00,1023.0,meteohub,2013-10-13 17:17:00,
2013-10-13 13:22:00,84.4,65.8,30.07,NNW,331,3.0,7.0,54,0.00,,,0.00,1076.0,meteohub,2013-10-13 17:22:00,
2013-10-13 13:27:00,83.7,66.7,30.07,NNE,20,3.0,9.0,57,0.00,,,0.00,330.0,meteohub,2013-10-13 17:27:00,
2013-10-13 13:32:00,82.2,66.4,30.07,ENE,63,3.0,9.0,59,0.00,,,0.00,278.0,meteohub,2013-10-13 17:32:00,
2013-10-13 13:37:00,81.7,67.5,30.06,North,0,4.0,9.0,62,0.00,,,0.00,540.0,meteohub,2013-10-13 17:37:00,
2013-10-13 13:42:00,81.5,66.7,30.06,NW,304,3.0,9.0,61,0.00,,,0.00,288.0,meteohub,2013-10-13 17:42:00,
2013-10-13 13:47:00,81.7,68.7,30.06,North,351,1.0,9.0,65,0.00,,,0.00,977.0,meteohub,2013-10-13 17:47:00,
2013-10-13 13:52:00,84.4,68.5,30.06,SSW,207,6.0,9.0,59,0.00,,,0.00,1016.0,meteohub,2013-10-13 17:52:00,
2013-10-13 13:57:00,83.5,67.1,30.06,North,0,1.0,6.0,58,0.00,,,0.00,288.0,meteohub,2013-10-13 17:57:00,
2013-10-13 14:02:00,81.7,66.4,30.06,NNE,24,2.0,6.0,60,0.00,,,0.00,213.0,meteohub,2013-10-13 18:02:00,
2013-10-13 14:07:00,81.5,65.8,30.06,NE,51,2.0,7.0,59,0.00,,,0.00,211.0,meteohub,2013-10-13 18:07:00,
2013-10-13 14:12:00,82.8,66.6,30.06,West,281,2.0,7.0,58,0.00,,,0.00,780.0,meteohub,2013-10-13 18:12:00,
2013-10-13 14:18:00,84.0,65.1,30.06,East,82,2.0,5.0,53,0.00,,,0.00,784.0,meteohub,2013-10-13 18:18:00,
2013-10-13 14:24:00,83.1,64.8,30.05,WSW,252,2.0,7.0,54,0.00,,,0.00,895.0,meteohub,2013-10-13 18:24:00,
2013-10-13 14:31:00,83.5,65.7,30.05,NE,44,2.0,7.0,55,0.00,,,0.00,608.0,meteohub,2013-10-13 18:31:00,
2013-10-13 14:37:00,83.3,66.9,30.05,NNW,331,1.0,7.0,58,0.00,,,0.00,334.0,meteohub,2013-10-13 18:37:00,
2013-10-13 14:43:00,82.2,66.4,30.04,NE,54,2.0,6.0,59,0.00,,,0.00,260.0,meteohub,2013-10-13 18:43:00,
2013-10-13 14:49:00,81.9,66.2,30.04,NNW,333,1.0,6.0,59,0.00,,,0.00,320.0,meteohub,2013-10-13 18:49:00,
2013-10-13 14:55:00,82.2,67.5,30.04,NE,44,5.0,9.0,61,0.00,,,0.00,325.0,meteohub,2013-10-13 18:55:00,
2013-10-13 15:02:00,81.7,66.4,30.04,NE,40,3.0,9.0,60,0.00,,,0.00,301.0,meteohub,2013-10-13 19:02:00,
2013-10-13 15:07:00,81.1,66.9,30.04,NNW,336,1.0,7.0,62,0.00,,,0.00,311.0,meteohub,2013-10-13 19:07:00,
2013-10-13 15:12:00,81.5,67.6,30.04,NE,45,1.0,7.0,63,0.00,,,0.00,311.0,meteohub,2013-10-13 19:12:00,
2013-10-13 15:17:00,81.3,68.0,30.04,NW,306,1.0,6.0,64,0.00,,,0.00,371.0,meteohub,2013-10-13 19:17:00,
2013-10-13 15:22:00,82.2,67.5,30.04,NE,45,3.0,6.0,61,0.00,,,0.00,647.0,meteohub,2013-10-13 19:22:00,
2013-10-13 15:27:00,82.6,66.7,30.04,NNW,344,2.0,3.0,59,0.00,,,0.00,265.0,meteohub,2013-10-13 19:27:00,
2013-10-13 15:32:00,81.7,67.5,30.04,NNE,24,3.0,3.0,62,0.00,,,0.00,592.0,meteohub,2013-10-13 19:32:00,
2013-10-13 15:37:00,81.3,67.5,30.04,North,5,3.0,9.0,63,0.00,,,0.00,257.0,meteohub,2013-10-13 19:37:00,
2013-10-13 15:42:00,81.1,66.9,30.04,NE,37,1.0,9.0,62,0.00,,,0.00,251.0,meteohub,2013-10-13 19:42:00,
2013-10-13 15:47:00,81.1,67.8,30.04,NNE,27,0.0,4.0,64,0.00,,,0.00,239.0,meteohub,2013-10-13 19:47:00,
2013-10-13 15:52:00,81.0,67.6,30.04,NE,53,1.0,4.0,64,0.00,,,0.00,244.0,meteohub,2013-10-13 19:52:00,
2013-10-13 15:57:00,80.8,66.6,30.03,NNE,24,1.0,4.0,62,0.00,,,0.00,285.0,meteohub,2013-10-13 19:57:00,
2013-10-13 16:02:00,80.6,65.8,30.03,NNE,22,3.0,4.0,61,0.00,,,0.00,237.0,meteohub,2013-10-13 20:02:00,
2013-10-13 16:07:00,80.6,65.8,30.03,NNE,28,7.0,7.0,61,0.00,,,0.00,214.0,meteohub,2013-10-13 20:07:00,
2013-10-13 16:12:00,81.7,66.9,30.03,NNE,13,1.0,6.0,61,0.00,,,0.00,415.0,meteohub,2013-10-13 20:12:00,
2013-10-13 16:17:00,82.8,66.9,30.03,NNW,333,1.0,7.0,59,0.00,,,0.00,657.0,meteohub,2013-10-13 20:17:00,
2013-10-13 16:22:00,82.6,66.4,30.03,NE,39,2.0,7.0,58,0.00,,,0.00,455.0,meteohub,2013-10-13 20:22:00,
2013-10-13 16:27:00,82.6,67.3,30.03,NE,44,2.0,5.0,60,0.00,,,0.00,596.0,meteohub,2013-10-13 20:27:00,
2013-10-13 16:32:00,82.9,65.7,30.02,NNW,338,1.0,5.0,56,0.00,,,0.00,318.0,meteohub,2013-10-13 20:32:00,
2013-10-13 16:37:00,82.8,66.6,30.02,NE,37,3.0,4.0,58,0.00,,,0.00,492.0,meteohub,2013-10-13 20:37:00,
2013-10-13 16:42:00,82.9,66.2,30.02,NE,56,3.0,4.0,57,0.00,,,0.00,457.0,meteohub,2013-10-13 20:42:00,
2013-10-13 16:47:00,82.8,66.6,30.02,North,0,2.0,5.0,58,0.00,,,0.00,483.0,meteohub,2013-10-13 20:47:00,
2013-10-13 16:52:00,82.4,66.2,30.02,NNE,18,4.0,5.0,58,0.00,,,0.00,446.0,meteohub,2013-10-13 20:52:00,
2013-10-13 16:57:00,82.0,65.8,30.03,NNE,18,1.0,5.0,58,0.00,,,0.00,297.0,meteohub,2013-10-13 20:57:00,
2013-10-13 17:02:00,82.0,65.8,30.02,NNE,22,4.0,5.0,58,0.00,,,0.00,207.0,meteohub,2013-10-13 21:02:00,
2013-10-13 17:07:00,81.1,66.0,30.03,ENE,76,3.0,7.0,60,0.00,,,0.00,343.0,meteohub,2013-10-13 21:07:00,
2013-10-13 17:12:00,81.1,65.5,30.03,ENE,74,1.0,7.0,59,0.00,,,0.00,359.0,meteohub,2013-10-13 21:12:00,
2013-10-13 17:17:00,80.4,65.7,30.03,North,355,2.0,8.0,61,0.00,,,0.00,146.0,meteohub,2013-10-13 21:17:00,
2013-10-13 17:22:00,80.1,64.9,30.03,ESE,107,1.0,8.0,60,0.00,,,0.00,132.0,meteohub,2013-10-13 21:22:00,
2013-10-13 17:27:00,79.3,65.1,30.03,NNW,331,3.0,4.0,62,0.00,,,0.00,125.0,meteohub,2013-10-13 21:27:00,
2013-10-13 17:32:00,79.2,64.9,30.03,NNE,15,2.0,4.0,62,0.00,,,0.00,130.0,meteohub,2013-10-13 21:32:00,
2013-10-13 17:37:00,79.0,65.3,30.03,NE,40,0.0,6.0,63,0.00,,,0.00,121.0,meteohub,2013-10-13 21:37:00,
2013-10-13 17:42:00,79.0,65.3,30.03,NNE,24,1.0,6.0,63,0.00,,,0.00,220.0,meteohub,2013-10-13 21:42:00,
2013-10-13 17:47:00,79.2,65.8,30.03,NNW,327,1.0,5.0,64,0.00,,,0.00,139.0,meteohub,2013-10-13 21:47:00,
2013-10-13 17:52:00,78.6,65.8,30.03,NNE,17,1.0,5.0,65,0.00,,,0.00,90.0,meteohub,2013-10-13 21:52:00,
2013-10-13 17:57:00,78.3,66.0,30.03,NNE,23,1.0,3.0,66,0.00,,,0.00,72.0,meteohub,2013-10-13 21:57:00,
2013-10-13 18:03:00,77.7,65.8,30.03,NE,36,0.0,3.0,67,0.00,,,0.00,58.0,meteohub,2013-10-13 22:03:00,
2013-10-13 18:09:00,77.4,66.4,30.03,NE,42,0.0,3.0,69,0.00,,,0.00,54.0,meteohub,2013-10-13 22:09:00,
2013-10-13 18:16:00,77.2,67.1,30.03,NE,42,0.0,3.0,71,0.00,,,0.00,44.0,meteohub,2013-10-13 22:16:00,
2013-10-13 18:22:00,76.8,67.1,30.04,NE,42,0.0,3.0,72,0.00,,,0.00,35.0,meteohub,2013-10-13 22:22:00,
2013-10-13 18:27:00,76.6,67.3,30.04,NE,42,0.0,1.0,73,0.00,,,0.00,26.0,meteohub,2013-10-13 22:27:00,
2013-10-13 18:32:00,76.3,67.5,30.04,NE,42,0.0,1.0,74,0.00,,,0.00,18.0,meteohub,2013-10-13 22:32:00,
2013-10-13 18:37:00,76.1,66.7,30.04,NNE,19,1.0,0.0,73,0.00,,,0.00,14.0,meteohub,2013-10-13 22:37:00,
2013-10-13 18:42:00,75.9,66.6,30.04,NE,36,0.0,0.0,73,0.00,,,0.00,11.0,meteohub,2013-10-13 22:42:00,
2013-10-13 18:47:00,75.6,67.1,30.04,NE,36,0.0,2.0,75,0.00,,,0.00,5.0,meteohub,2013-10-13 22:47:00,
2013-10-13 18:52:00,75.2,67.1,30.05,NE,36,0.0,2.0,76,0.00,,,0.00,0.0,meteohub,2013-10-13 22:52:00,
2013-10-13 18:57:00,74.8,66.7,30.05,NE,36,0.0,2.0,76,0.00,,,0.00,0.0,meteohub,2013-10-13 22:57:00,
2013-10-13 19:02:00,74.1,66.4,30.05,NE,36,0.0,2.0,77,0.00,,,0.00,0.0,meteohub,2013-10-13 23:02:00,
2013-10-13 19:07:00,73.9,66.6,30.05,NE,36,0.0,1.0,78,0.00,,,0.00,0.0,meteohub,2013-10-13 23:07:00,
2013-10-13 19:12:00,73.6,66.7,30.05,NE,36,0.0,1.0,79,0.00,,,0.00,0.0,meteohub,2013-10-13 23:12:00,
2013-10-13 19:17:00,73.0,66.9,30.05,NE,36,0.0,0.0,81,0.00,,,0.00,0.0,meteohub,2013-10-13 23:17:00,
2013-10-13 19:22:00,72.9,66.7,30.05,NE,36,0.0,0.0,81,0.00,,,0.00,0.0,meteohub,2013-10-13 23:22:00,
2013-10-13 19:27:00,72.7,66.9,30.06,NE,36,0.0,0.0,82,0.00,,,0.00,0.0,meteohub,2013-10-13 23:27:00,
2013-10-13 19:32:00,72.7,66.9,30.06,NE,36,0.0,0.0,82,0.00,,,0.00,0.0,meteohub,2013-10-13 23:32:00,
2013-10-13 19:37:00,72.5,67.1,30.06,NE,36,0.0,0.0,83,0.00,,,0.00,0.0,meteohub,2013-10-13 23:37:00,
2013-10-13 19:42:00,72.1,66.7,30.06,NE,36,0.0,0.0,83,0.00,,,0.00,0.0,meteohub,2013-10-13 23:42:00,
2013-10-13 19:47:00,72.0,66.9,30.06,NE,36,0.0,0.0,84,0.00,,,0.00,0.0,meteohub,2013-10-13 23:47:00,
2013-10-13 19:52:00,71.8,66.7,30.06,NE,36,0.0,0.0,84,0.00,,,0.00,0.0,meteohub,2013-10-13 23:52:00,
2013-10-13 19:57:00,71.6,66.9,30.07,NE,36,0.0,0.0,85,0.00,,,0.00,0.0,meteohub,2013-10-13 23:57:00,
2013-10-13 20:02:00,71.8,67.1,30.07,NE,36,0.0,0.0,85,0.00,,,0.00,0.0,meteohub,2013-10-14 00:02:00,
2013-10-13 20:07:00,71.4,66.7,30.07,NE,36,0.0,0.0,85,0.00,,,0.00,0.0,meteohub,2013-10-14 00:07:00,
2013-10-13 20:12:00,71.4,66.7,30.07,NE,36,0.0,0.0,85,0.00,,,0.00,0.0,meteohub,2013-10-14 00:12:00,
2013-10-13 20:19:00,71.2,66.9,30.08,NE,36,0.0,0.0,86,0.00,,,0.00,0.0,meteohub,2013-10-14 00:19:00,
2013-10-13 20:26:00,71.2,66.9,30.07,NE,36,0.0,0.0,86,0.00,,,0.00,0.0,meteohub,2013-10-14 00:26:00,
2013-10-13 20:32:00,70.9,66.7,30.08,NE,36,0.0,0.0,87,0.00,,,0.00,0.0,meteohub,2013-10-14 00:32:00,
2013-10-13 20:37:00,70.7,66.9,30.07,NE,36,0.0,0.0,88,0.00,,,0.00,0.0,meteohub,2013-10-14 00:37:00,
2013-10-13 20:44:00,70.2,66.7,30.08,NE,36,0.0,0.0,89,0.00,,,0.00,0.0,meteohub,2013-10-14 00:44:00,
2013-10-13 20:50:00,70.0,66.9,30.08,NE,36,0.0,0.0,90,0.00,,,0.00,0.0,meteohub,2013-10-14 00:50:00,
2013-10-13 20:57:00,69.8,66.7,30.09,NE,36,0.0,0.0,90,0.00,,,0.00,0.0,meteohub,2013-10-14 00:57:00,
2013-10-13 21:02:00,69.6,66.6,30.09,NE,36,0.0,0.0,90,0.00,,,0.00,0.0,meteohub,2013-10-14 01:02:00,
2013-10-13 21:07:00,69.4,66.7,30.08,NE,36,0.0,0.0,91,0.00,,,0.00,0.0,meteohub,2013-10-14 01:07:00,
2013-10-13 21:12:00,69.1,66.7,30.09,NE,36,0.0,0.0,92,0.00,,,0.00,0.0,meteohub,2013-10-14 01:12:00,
2013-10-13 21:18:00,68.7,66.4,30.09,NE,36,0.0,0.0,92,0.00,,,0.00,0.0,meteohub,2013-10-14 01:18:00,
2013-10-13 21:24:00,68.5,66.4,30.09,NE,36,0.0,0.0,93,0.00,,,0.00,0.0,meteohub,2013-10-14 01:24:00,
2013-10-13 21:31:00,68.4,66.0,30.09,NE,36,0.0,0.0,92,0.00,,,0.00,0.0,meteohub,2013-10-14 01:31:00,
2013-10-13 21:37:00,68.2,66.0,30.09,NE,36,0.0,0.0,93,0.00,,,0.00,0.0,meteohub,2013-10-14 01:37:00,
2013-10-13 21:42:00,67.8,65.7,30.09,NE,36,0.0,0.0,93,0.00,,,0.00,0.0,meteohub,2013-10-14 01:42:00,
2013-10-13 21:47:00,67.6,65.8,30.09,NE,36,0.0,0.0,94,0.00,,,0.00,0.0,meteohub,2013-10-14 01:47:00,
2013-10-13 21:52:00,67.6,65.8,30.09,NE,36,0.0,0.0,94,0.00,,,0.00,0.0,meteohub,2013-10-14 01:52:00,
2013-10-13 21:59:00,67.5,65.7,30.08,NE,36,0.0,0.0,94,0.00,,,0.00,0.0,meteohub,2013-10-14 01:59:00,
2013-10-13 22:05:00,67.3,65.8,30.09,NE,36,0.0,0.0,95,0.00,,,0.00,0.0,meteohub,2013-10-14 02:05:00,
2013-10-13 22:11:00,66.9,65.5,30.09,NE,36,0.0,0.0,95,0.00,,,0.00,0.0,meteohub,2013-10-14 02:11:00,
2013-10-13 22:17:00,66.7,65.3,30.09,NE,36,0.0,1.0,95,0.00,,,0.00,0.0,meteohub,2013-10-14 02:17:00,
2013-10-13 22:22:00,66.7,65.3,30.09,NE,36,0.0,1.0,95,0.00,,,0.00,0.0,meteohub,2013-10-14 02:22:00,
2013-10-13 22:27:00,66.7,65.3,30.09,NE,36,0.0,1.0,95,0.00,,,0.00,0.0,meteohub,2013-10-14 02:27:00,
2013-10-13 22:32:00,66.6,65.1,30.09,NE,36,0.0,1.0,95,0.00,,,0.00,0.0,meteohub,2013-10-14 02:32:00,
2013-10-13 22:37:00,66.4,65.1,30.08,NE,36,0.0,0.0,96,0.00,,,0.00,0.0,meteohub,2013-10-14 02:37:00,
2013-10-13 22:42:00,66.4,65.1,30.09,NE,36,0.0,0.0,96,0.00,,,0.00,0.0,meteohub,2013-10-14 02:42:00,
2013-10-13 22:47:00,66.2,64.9,30.09,NE,36,0.0,0.0,96,0.00,,,0.00,0.0,meteohub,2013-10-14 02:47:00,
2013-10-13 22:52:00,66.4,65.1,30.09,NE,36,0.0,0.0,96,0.00,,,0.00,0.0,meteohub,2013-10-14 02:52:00,
2013-10-13 22:57:00,66.4,65.1,30.09,NE,36,0.0,0.0,96,0.00,,,0.00,0.0,meteohub,2013-10-14 02:57:00,
2013-10-13 23:02:00,66.4,65.1,30.09,NE,36,0.0,0.0,96,0.00,,,0.00,0.0,meteohub,2013-10-14 03:02:00,
2013-10-13 23:07:00,66.4,65.1,30.09,NE,36,0.0,0.0,96,0.00,,,0.00,0.0,meteohub,2013-10-14 03:07:00,
2013-10-13 23:12:00,66.4,65.1,30.09,NE,36,0.0,0.0,96,0.00,,,0.00,0.0,meteohub,2013-10-14 03:12:00,
2013-10-13 23:17:00,66.4,65.1,30.09,NE,36,0.0,0.0,96,0.00,,,0.00,0.0,meteohub,2013-10-14 03:17:00,
2013-10-13 23:22:00,66.2,64.9,30.09,NE,36,0.0,0.0,96,0.00,,,0.00,0.0,meteohub,2013-10-14 03:22:00,
2013-10-13 23:27:00,66.4,65.1,30.09,NE,36,0.0,1.0,96,0.00,,,0.00,0.0,meteohub,2013-10-14 03:27:00,
2013-10-13 23:32:00,66.6,65.3,30.09,NE,36,0.0,1.0,96,0.00,,,0.00,0.0,meteohub,2013-10-14 03:32:00,
2013-10-13 23:37:00,66.7,65.5,30.09,NE,36,0.0,1.0,96,0.00,,,0.00,0.0,meteohub,2013-10-14 03:37:00,
2013-10-13 23:42:00,66.9,65.7,30.09,NE,36,0.0,1.0,96,0.00,,,0.00,0.0,meteohub,2013-10-14 03:42:00,
2013-10-13 23:47:00,66.9,65.7,30.09,NE,36,0.0,0.0,96,0.00,,,0.00,0.0,meteohub,2013-10-14 03:47:00,
2013-10-13 23:52:00,67.1,65.8,30.09,NE,36,0.0,0.0,96,0.00,,,0.00,0.0,meteohub,2013-10-14 03:52:00,
2013-10-13 23:57:00,67.3,66.0,30.09,NE,36,0.0,0.0,96,0.00,,,0.00,0.0,meteohub,2013-10-14 03:57:00,